Renville, Minnesota
Current Conditions -  °F | °C
As of 10:33 AM on Tuesday 27 Jan 2015 (Local Time) from KOVL Reporting Station
Overcast Overcast  
Wind Chill: -5°   Ceiling: 800
Heat Index: -1°   Visibility: 10mi
Dew Point: -2°   Wind: 7mph
Humidity: 93%   Direction: 160°SSE
Pressure: 30.13"   Gusts: NA
Location:  44.79°N, 95.21°W
Report Text: KOVL 271633Z AUTO 16006KT 10SM OVC008 M01/M02 A3013 RMK AO2
Loading
Personal Weather Stations






























Interactive Weather Map New forecast layout! Learn more

10-Day Weather Forecast

Advertisements
Track Severe Weather on mobile